Tribune, Kansas
Current Conditions -  °F | °C
As of 7:55 AM on Monday 24 Nov 2014 (Local Time) from K3K3 Reporting Station
Clear Clear  
Wind Chill: 14°   Ceiling: Unl
Heat Index: 27°   Visibility: 10mi
Dew Point: 23°   Wind: 16mph
Humidity: 86%   Direction: 290°WNW
Pressure: 29.93"   Gusts: 20mph
Location:  38.47°N, 101.75°W
Report Text: K3K3 241355Z AUTO 29014G17KT 10SM CLR M03/M05 A2993 RMK AO2
Loading
Personal Weather Stations






























Interactive Weather Map New forecast layout! Learn more

10-Day Weather Forecast

Advertisements
Track Severe Weather on mobile